Time;durP1;ratioP1;P1;durP2;ratioP2;P2;SDS_P1;SDS_P2;PMS_P1;PMS_P2;Temp;Humidity;BMP_temperature;BMP_pressure;BME280_temperature;BME280_humidity;BME280_pressure;Samples;Min_cycle;Max_cycle;Signal;HPM_P1;HPM_P2
2023/04/06 04:11:35;;;;;;;20.25;10.77;;;;;;;-2.32;92.64;100440.94;5559767;32;268454;-83
2023/04/06 04:14:38;;;;;;;18.40;10.52;;;;;;;-2.36;92.51;100428.78;5549083;32;34202;-83
2023/04/06 04:17:41;;;;;;;17.45;10.75;;;;;;;-2.31;91.68;100431.41;5548453;32;34022;-83
2023/04/06 04:20:46;;;;;;;19.37;10.07;;;;;;;-2.24;90.66;100429.69;5548604;32;33952;-83
2023/04/06 04:23:49;;;;;;;18.55;10.48;;;;;;;-2.15;87.73;100428.84;5548841;32;33922;-83
2023/04/06 04:26:52;;;;;;;17.12;9.85;;;;;;;-2.18;86.26;100428.00;5548330;32;35334;-84
2023/04/06 04:29:55;;;;;;;18.77;10.70;;;;;;;-2.12;84.36;100432.34;5547402;32;34666;-84
2023/04/06 04:32:58;;;;;;;19.17;11.15;;;;;;;-2.09;86.40;100434.06;5547612;32;33447;-84
2023/04/06 04:36:02;;;;;;;21.17;10.77;;;;;;;-1.95;85.00;100428.94;5547365;32;33781;-84
2023/04/06 04:39:07;;;;;;;19.83;10.93;;;;;;;-1.73;83.42;100426.34;5550406;32;34557;-84
2023/04/06 04:42:11;;;;;;;18.15;11.05;;;;;;;-1.58;82.02;100423.78;5553522;32;34110;-84
2023/04/06 04:45:16;;;;;;;15.85;10.35;;;;;;;-1.58;78.39;100418.59;5572212;32;34186;-84
2023/04/06 04:48:19;;;;;;;20.08;10.88;;;;;;;-1.52;76.31;100421.19;5567503;32;33702;-84
2023/04/06 04:51:24;;;;;;;21.48;11.68;;;;;;;-1.49;75.64;100417.72;5567342;32;33929;-84
2023/04/06 04:54:28;;;;;;;18.33;10.93;;;;;;;-1.37;75.64;100422.06;5567036;32;34056;-84
2023/04/06 04:57:32;;;;;;;22.83;11.70;;;;;;;-1.17;75.13;100421.22;5567566;32;33212;-84
2023/04/06 05:00:35;;;;;;;17.77;11.02;;;;;;;-1.20;75.09;100431.62;5567822;32;33954;-84
2023/04/06 05:03:39;;;;;;;18.87;10.82;;;;;;;-1.05;75.42;100430.75;5568218;32;33799;-84
2023/04/06 05:06:42;;;;;;;16.23;10.98;;;;;;;-1.07;73.97;100429.87;5569953;32;33896;-88
2023/04/06 05:09:46;;;;;;;18.00;11.95;;;;;;;-0.92;72.56;100421.19;5575442;32;33772;-88
2023/04/06 05:12:49;;;;;;;18.85;11.10;;;;;;;-0.74;70.64;100420.28;5570291;32;34059;-88
2023/04/06 05:15:53;;;;;;;21.35;11.95;;;;;;;-0.68;70.67;100415.94;5568370;32;33575;-84
2023/04/06 05:18:56;;;;;;;18.65;11.32;;;;;;;-0.51;69.93;100404.56;5569325;32;33760;-84
2023/04/06 05:22:00;;;;;;;18.45;12.13;;;;;;;-0.61;70.22;100395.06;5559843;32;34187;-84
2023/04/06 05:25:06;;;;;;;20.75;11.85;;;;;;;-0.65;69.63;100393.34;5556460;32;33988;-84
2023/04/06 05:28:09;;;;;;;22.50;12.10;;;;;;;-0.49;68.51;100389.81;5554543;32;33865;-84
2023/04/06 05:31:14;;;;;;;22.17;11.25;;;;;;;-0.41;67.70;100394.97;5553166;32;34486;-84
2023/04/06 05:34:18;;;;;;;20.20;11.68;;;;;;;-0.06;66.50;100388.72;5553041;32;33597;-84
2023/04/06 05:37:21;;;;;;;25.50;12.43;;;;;;;0.15;65.13;100384.25;5553963;32;33575;-84
2023/04/06 05:40:25;;;;;;;21.37;11.95;;;;;;;0.16;65.70;100382.50;5554633;32;34378;-84
2023/04/06 05:43:28;;;;;;;19.17;11.27;;;;;;;0.43;64.69;100373.63;5554001;32;33750;-84
2023/04/06 05:46:31;;;;;;;20.00;11.07;;;;;;;0.84;64.45;100384.59;5562093;32;33575;-84
2023/04/06 05:49:35;;;;;;;21.62;11.85;;;;;;;1.10;62.35;100374.78;5565547;32;35731;-84
2023/04/06 05:52:42;;;;;;;24.25;13.07;;;;;;;0.87;62.55;100375.84;5561475;32;32615;-84
2023/04/06 05:55:46;;;;;;;19.60;12.07;;;;;;;1.39;61.46;100381.41;5555589;32;33916;-84
2023/04/06 05:58:49;;;;;;;21.12;12.43;;;;;;;1.25;60.98;100377.19;5555061;32;33621;-85
2023/04/06 06:01:53;;;;;;;23.17;13.02;;;;;;;1.60;59.54;100381.16;5563574;32;34624;-84
2023/04/06 06:04:58;;;;;;;19.58;12.85;;;;;;;1.38;60.37;100364.88;5566932;32;34125;-85
2023/04/06 06:08:01;;;;;;;21.17;12.02;;;;;;;1.68;60.18;100369.72;5571224;32;34060;-85
2023/04/06 06:11:05;;;;;;;19.20;13.10;;;;;;;1.72;59.77;100368.81;5555966;32;34031;-84
2023/04/06 06:14:08;;;;;;;21.08;12.77;;;;;;;1.62;60.12;100368.91;5553530;32;32999;-85
2023/04/06 06:17:12;;;;;;;24.50;13.23;;;;;;;1.69;59.68;100361.88;5539062;32;34166;-85
2023/04/06 06:20:15;;;;;;;21.30;13.18;;;;;;;2.07;58.51;100362.22;5541418;32;34319;-84
2023/04/06 06:23:19;;;;;;;20.30;12.70;;;;;;;1.74;58.90;100354.84;5540599;32;34034;-85
2023/04/06 06:26:22;;;;;;;23.25;13.95;;;;;;;2.39;57.46;100355.63;5536925;32;34158;-85
2023/04/06 06:29:25;;;;;;;25.12;13.90;;;;;;;2.51;56.51;100358.94;5553159;32;34319;-85
2023/04/06 06:32:28;;;;;;;22.87;13.00;;;;;;;2.60;56.04;100350.91;5558017;32;34708;-85
2023/04/06 06:35:31;;;;;;;21.02;13.80;;;;;;;2.71;54.44;100342.00;5548715;32;33703;-85
2023/04/06 06:38:35;;;;;;;23.58;12.70;;;;;;;2.80;53.49;100341.84;5538974;32;34006;-85
2023/04/06 06:41:40;;;;;;;20.73;12.85;;;;;;;3.72;51.04;100333.03;5547449;32;33838;-85
2023/04/06 06:44:43;;;;;;;24.90;13.57;;;;;;;3.61;50.29;100337.62;5549961;32;34263;-84
2023/04/06 06:47:46;;;;;;;26.73;13.95;;;;;;;3.56;50.21;100339.53;5551514;32;34094;-84
2023/04/06 06:50:49;;;;;;;23.87;13.15;;;;;;;3.75;49.64;100334.72;5547574;32;33951;-83
2023/04/06 06:53:52;;;;;;;22.45;13.18;;;;;;;4.01;49.02;100328.00;5546023;32;33914;-84
2023/04/06 06:56:55;;;;;;;20.30;13.07;;;;;;;3.43;50.08;100326.66;5557482;32;34645;-84
2023/04/06 06:59:59;;;;;;;17.27;11.32;;;;;;;3.15;50.76;100331.56;5563152;32;35025;-84
2023/04/06 07:03:03;;;;;;;20.17;12.63;;;;;;;3.15;50.62;100331.56;5563436;32;33973;-84
2023/04/06 07:06:06;;;;;;;19.15;11.65;;;;;;;3.39;50.88;100324.13;5545000;32;36634;-85
2023/04/06 07:09:09;;;;;;;20.10;11.95;;;;;;;3.66;48.98;100322.66;5552798;32;34219;-85
2023/04/06 07:12:12;;;;;;;20.95;12.75;;;;;;;4.27;47.62;100329.19;5559681;32;34604;-88
2023/04/06 07:15:16;;;;;;;21.87;12.88;;;;;;;4.39;46.88;100330.62;5552032;32;34229;-89
2023/04/06 07:18:20;;;;;;;17.08;11.65;;;;;;;4.74;46.33;100330.62;5552051;32;35207;-89
2023/04/06 07:21:23;;;;;;;24.60;11.82;;;;;;;4.37;46.30;100327.19;5551049;32;34667;-86
2023/04/06 07:24:26;;;;;;;24.90;13.95;;;;;;;5.27;44.83;100330.06;5555895;32;33657;-86
2023/04/06 07:27:29;;;;;;;26.17;14.57;;;;;;;5.63;43.14;100334.31;5551463;32;34105;-86
2023/04/06 07:30:32;;;;;;;23.62;13.27;;;;;;;6.60;41.61;100321.63;5555572;32;34346;-85
2023/04/06 07:33:38;;;;;;;24.87;13.68;;;;;;;7.74;38.60;100320.19;5552326;32;33053;-84
2023/04/06 07:36:41;;;;;;;21.10;12.00;;;;;;;7.48;38.71;100322.91;5550030;32;33692;-85
2023/04/06 07:39:45;;;;;;;20.02;11.32;;;;;;;7.22;39.03;100324.75;5557524;32;34764;-85
2023/04/06 07:42:48;;;;;;;19.42;10.70;;;;;;;7.73;38.47;100315.81;5556979;32;34295;-86
2023/04/06 07:45:51;;;;;;;21.92;10.68;;;;;;;8.44;37.05;100312.97;5542532;32;33730;-86
2023/04/06 07:48:55;;;;;;;15.90;10.80;;;;;;;7.76;38.29;100307.78;5558291;32;33616;-86
2023/04/06 07:51:58;;;;;;;16.05;10.23;;;;;;;6.02;41.00;100312.97;5553392;32;33908;-86
2023/04/06 07:55:02;;;;;;;15.48;9.75;;;;;;;6.72;40.21;100325.59;5550748;32;34037;-87
2023/04/06 07:58:05;;;;;;;18.40;9.77;;;;;;;7.56;37.96;100309.41;5551292;32;32498;-86
2023/04/06 08:01:08;;;;;;;17.87;9.80;;;;;;;7.74;37.92;100307.00;5557090;32;33820;-86
2023/04/06 08:04:11;;;;;;;15.55;10.75;;;;;;;6.94;39.56;100304.63;5559097;32;34741;-85
2023/04/06 08:07:14;;;;;;;18.12;10.77;;;;;;;6.69;39.56;100308.13;5556284;32;34113;-86
2023/04/06 08:10:17;;;;;;;15.73;10.50;;;;;;;7.13;39.57;100310.09;5537799;32;33647;-86
2023/04/06 08:13:21;;;;;;;18.27;10.52;;;;;;;7.90;38.32;100301.97;5550150;32;34095;-87
2023/04/06 08:16:24;;;;;;;20.35;11.80;;;;;;;7.46;38.83;100308.03;5552290;32;33459;-86
2023/04/06 08:19:29;;;;;;;14.87;10.10;;;;;;;7.16;39.41;100309.13;5551895;32;33975;-86
2023/04/06 08:22:34;;;;;;;18.10;10.85;;;;;;;7.50;39.09;100299.09;5553549;32;33587;-85
2023/04/06 08:25:37;;;;;;;16.00;10.50;;;;;;;7.47;38.72;100292.16;5551169;32;35224;-86
2023/04/06 08:28:40;;;;;;;33.75;11.50;;;;;;;6.87;40.30;100288.19;5550141;32;34007;-88
2023/04/06 08:31:43;;;;;;;15.25;9.98;;;;;;;6.52;40.98;100292.03;5548724;32;33703;-87
2023/04/06 08:34:46;;;;;;;16.12;9.73;;;;;;;6.59;40.23;100283.00;5549433;32;34126;-86
2023/04/06 08:37:49;;;;;;;18.90;11.15;;;;;;;7.58;39.11;100291.72;5550101;32;34179;-87
2023/04/06 08:40:52;;;;;;;25.98;13.48;;;;;;;8.53;37.15;100281.81;5549461;32;33659;-87
2023/04/06 08:44:02;;;;;;;14.90;9.65;;;;;;;8.65;37.00;100283.09;5549220;32;34604;-86
2023/04/06 08:47:05;;;;;;;16.10;9.88;;;;;;;8.43;36.11;100276.91;5547564;32;33698;-86
2023/04/06 08:50:11;;;;;;;16.45;10.45;;;;;;;9.05;35.66;100285.75;5553435;32;33614;-86
2023/04/06 08:53:16;;;;;;;12.15;8.50;;;;;;;9.16;36.21;100279.03;5559754;32;34168;-84
2023/04/06 08:56:18;;;;;;;12.13;8.18;;;;;;;10.16;33.54;100282.31;5551228;32;34153;-83
2023/04/06 08:59:23;;;;;;;13.48;7.75;;;;;;;10.70;31.70;100272.62;5552724;32;34645;-84
2023/04/06 09:02:27;;;;;;;13.10;8.65;;;;;;;10.51;31.75;100271.78;5553308;32;33869;-84
2023/04/06 09:05:30;;;;;;;11.00;7.65;;;;;;;8.25;33.37;100269.75;5550890;32;33964;-83
2023/04/06 09:08:34;;;;;;;11.75;7.87;;;;;;;7.87;34.98;100270.38;5554485;32;33693;-83
2023/04/06 09:11:48;;;;;;;12.60;7.50;;;;;;;9.20;33.21;100270.97;5555586;32;33993;-84
2023/04/06 09:14:51;;;;;;;12.00;8.30;;;;;;;9.44;32.81;100271.63;5558944;32;33798;-88
2023/04/06 09:17:54;;;;;;;11.98;7.87;;;;;;;8.65;32.84;100272.50;5559207;32;35023;-89
2023/04/06 09:21:02;;;;;;;11.25;7.82;;;;;;;8.52;33.28;100270.38;5544348;32;34434;-86
2023/04/06 09:24:07;;;;;;;12.60;8.48;;;;;;;8.60;33.81;100262.12;5555074;32;33953;-85
2023/04/06 09:27:10;;;;;;;14.23;8.38;;;;;;;8.17;34.01;100259.47;5540718;32;33506;-84
2023/04/06 09:30:15;;;;;;;10.85;8.00;;;;;;;8.23;34.43;100261.88;5550265;32;34686;-84
2023/04/06 09:33:24;;;;;;;12.20;8.52;;;;;;;7.57;34.79;100263.63;5550208;32;33943;-84
2023/04/06 09:36:38;;;;;;;14.55;8.25;;;;;;;7.57;35.05;100258.34;5548137;32;34022;-84
2023/04/06 09:39:41;;;;;;;15.32;9.00;;;;;;;6.81;36.38;100251.47;5553204;32;34381;-84
2023/04/06 09:42:48;;;;;;;12.98;8.52;;;;;;;7.61;35.50;100253.78;5561986;32;34241;-85
2023/04/06 09:45:51;;;;;;;12.95;8.15;;;;;;;8.16;34.30;100247.19;5566449;32;34661;-84
2023/04/06 09:48:54;;;;;;;11.35;7.93;;;;;;;7.81;34.41;100248.56;5553972;32;34856;-85
2023/04/06 09:51:59;;;;;;;12.27;8.20;;;;;;;8.34;33.92;100249.06;5571673;32;34107;-85
2023/04/06 09:55:04;;;;;;;12.68;8.25;;;;;;;8.45;33.90;100243.31;5555497;32;33733;-85
2023/04/06 09:58:12;;;;;;;10.55;8.20;;;;;;;8.73;33.44;100242.16;5561176;32;33995;-85
2023/04/06 10:01:20;;;;;;;12.75;8.18;;;;;;;8.85;32.91;100243.38;5550322;32;33901;-85
2023/04/06 10:04:36;;;;;;;13.15;8.27;;;;;;;8.77;33.30;100237.59;5560693;32;34036;-85
2023/04/06 10:07:52;;;;;;;13.20;8.00;;;;;;;9.12;32.70;100237.78;5592594;26;34291;-85
2023/04/06 10:11:03;;;;;;;13.60;7.87;;;;;;;8.73;33.35;100234.22;5543137;32;33731;-86
2023/04/06 10:14:06;;;;;;;13.85;8.48;;;;;;;8.56;33.50;100221.72;5546854;32;33821;-86
2023/04/06 10:17:11;;;;;;;11.90;8.15;;;;;;;8.72;32.97;100229.88;5531118;32;33166;-85
2023/04/06 10:20:26;;;;;;;12.63;8.20;;;;;;;9.47;32.25;100228.25;5537263;32;34806;-85
2023/04/06 10:23:38;;;;;;;10.85;8.07;;;;;;;9.39;32.57;100213.59;5534674;32;34560;-84
2023/04/06 10:26:41;;;;;;;11.90;8.05;;;;;;;8.12;33.30;100214.75;5526489;32;33870;-88
2023/04/06 10:29:48;;;;;;;10.75;7.82;;;;;;;8.80;32.87;100218.91;5530581;32;33825;-86
2023/04/06 10:32:51;;;;;;;11.48;8.10;;;;;;;9.92;31.89;100196.97;5542981;32;34312;-86
2023/04/06 10:35:57;;;;;;;11.10;7.78;;;;;;;10.40;30.87;100205.12;5533276;32;33950;-86
2023/04/06 10:39:03;;;;;;;11.48;8.27;;;;;;;9.76;31.00;100197.69;5529413;32;33844;-85
2023/04/06 10:42:06;;;;;;;11.32;8.07;;;;;;;9.61;31.24;100206.41;5525249;32;34434;-85
2023/04/06 10:45:25;;;;;;;10.85;8.05;;;;;;;8.71;33.01;100203.47;5521117;32;33773;-85
2023/04/06 10:48:38;;;;;;;10.40;7.40;;;;;;;8.42;32.59;100197.66;5533809;32;34786;-85
2023/04/06 10:51:40;;;;;;;9.98;7.28;;;;;;;9.05;31.85;100196.63;5520268;32;33904;-84
2023/04/06 10:54:44;;;;;;;14.65;7.20;;;;;;;9.10;31.92;100193.81;5529227;32;34204;-85
2023/04/06 10:57:49;;;;;;;13.50;8.13;;;;;;;9.73;31.08;100186.41;5529576;32;33734;-87
2023/04/06 11:00:54;;;;;;;9.88;7.07;;;;;;;9.61;31.44;100178.12;5532349;32;33956;-85
2023/04/06 11:04:00;;;;;;;10.60;7.50;;;;;;;9.28;30.70;100187.62;5536934;32;35579;-85
2023/04/06 11:07:03;;;;;;;12.27;7.95;;;;;;;9.17;30.78;100184.62;5539075;32;34286;-85
2023/04/06 11:10:07;;;;;;;9.85;7.15;;;;;;;8.93;31.79;100181.31;5536389;32;34866;-85
2023/04/06 11:13:12;;;;;;;14.80;8.07;;;;;;;9.07;31.73;100175.41;5533410;32;34246;-85
2023/04/06 11:16:35;;;;;;;9.95;7.12;;;;;;;9.67;31.19;100172.53;5536683;32;34815;-85
2023/04/06 11:19:39;;;;;;;9.90;7.32;;;;;;;9.70;30.47;100177.69;5535613;32;34048;-85
2023/04/06 11:22:51;;;;;;;11.70;6.97;;;;;;;9.71;29.90;100175.91;5538833;32;33664;-85
2023/04/06 11:25:54;;;;;;;11.80;7.00;;;;;;;9.94;29.77;100171.22;5537396;32;33575;-84
2023/04/06 11:28:57;;;;;;;11.05;7.35;;;;;;;9.27;30.73;100169.19;5534964;32;34770;-85
2023/04/06 11:32:01;;;;;;;10.95;7.50;;;;;;;9.54;30.79;100171.41;5536786;32;33886;-85
2023/04/06 11:35:04;;;;;;;9.00;6.80;;;;;;;9.33;30.79;100160.94;5521725;32;33447;-84
2023/04/06 11:38:07;;;;;;;9.60;6.75;;;;;;;8.99;30.46;100159.88;5527851;32;34016;-85
2023/04/06 11:41:10;;;;;;;10.27;6.87;;;;;;;9.60;30.05;100159.69;5533509;32;33545;-85
2023/04/06 11:44:13;;;;;;;11.43;7.30;;;;;;;9.37;29.53;100149.28;5536009;32;34296;-89
2023/04/06 11:47:16;;;;;;;8.98;6.82;;;;;;;9.74;30.30;100156.31;5534321;32;33988;-89
2023/04/06 11:50:20;;;;;;;9.63;7.15;;;;;;;9.58;30.12;100149.16;5535892;32;34537;-89
2023/04/06 11:53:23;;;;;;;8.98;6.97;;;;;;;9.08;30.50;100148.00;5535679;32;34329;-90
2023/04/06 11:56:29;;;;;;;11.05;7.43;;;;;;;8.59;31.58;100146.69;5538190;32;33922;-86
2023/04/06 11:59:33;;;;;;;9.57;6.95;;;;;;;8.56;31.41;100147.69;5539991;32;34457;-85
2023/04/06 12:02:37;;;;;;;11.20;6.78;;;;;;;8.61;31.57;100147.50;5543462;32;35061;-85
2023/04/06 12:05:40;;;;;;;10.90;6.80;;;;;;;8.30;31.46;100144.41;5530291;32;34952;-85
2023/04/06 12:08:43;;;;;;;9.73;6.72;;;;;;;8.06;31.98;100143.69;5541761;32;33789;-85
2023/04/06 12:11:46;;;;;;;13.20;7.15;;;;;;;8.14;32.79;100140.72;5533808;32;34318;-84
2023/04/06 12:14:49;;;;;;;11.23;7.43;;;;;;;7.91;32.90;100135.47;5535462;32;33969;-85
2023/04/06 12:17:52;;;;;;;8.48;6.72;;;;;;;8.39;32.40;100137.00;5537378;32;34000;-85
2023/04/06 12:20:54;;;;;;;12.65;7.30;;;;;;;8.11;31.99;100143.50;5531682;32;34245;-85
2023/04/06 12:24:01;;;;;;;9.82;6.70;;;;;;;7.99;31.56;100136.97;5531576;32;33615;-85
2023/04/06 12:27:03;;;;;;;9.35;6.90;;;;;;;8.52;30.68;100140.84;5532199;32;34660;-85
2023/04/06 12:30:12;;;;;;;10.65;6.93;;;;;;;9.06;31.22;100134.88;5533454;32;33944;-85
2023/04/06 12:33:15;;;;;;;9.57;7.35;;;;;;;9.34;31.24;100138.81;5543723;32;33925;-85
2023/04/06 12:36:20;;;;;;;9.82;6.75;;;;;;;10.11;30.19;100130.62;5546898;32;34143;-85
2023/04/06 12:39:23;;;;;;;11.40;6.78;;;;;;;9.60;30.34;100136.69;5546616;32;35179;-85
2023/04/06 12:42:30;;;;;;;8.95;7.18;;;;;;;9.45;30.51;100125.06;5546079;32;35109;-84
2023/04/06 12:45:33;;;;;;;10.73;7.37;;;;;;;9.19;31.15;100129.00;5544786;32;35149;-86
2023/04/06 12:48:36;;;;;;;12.60;7.70;;;;;;;8.87;31.95;100129.56;5538001;32;34686;-86
2023/04/06 12:51:39;;;;;;;10.43;7.30;;;;;;;9.13;31.92;100123.06;5538098;32;33807;-85
2023/04/06 12:54:42;;;;;;;9.27;7.47;;;;;;;9.64;31.90;100119.72;5537074;32;34107;-85
2023/04/06 12:57:45;;;;;;;10.85;7.20;;;;;;;9.53;32.24;100111.44;5537437;32;34077;-85
2023/04/06 13:00:50;;;;;;;11.05;7.22;;;;;;;9.84;31.70;100116.06;5538419;32;34505;-85
2023/04/06 13:03:53;;;;;;;11.18;7.32;;;;;;;9.77;31.71;100121.75;5537624;32;34448;-85
2023/04/06 13:06:55;;;;;;;9.20;7.03;;;;;;;8.99;33.04;100126.34;5536436;32;34458;-85
2023/04/06 13:09:58;;;;;;;9.38;6.45;;;;;;;8.76;34.13;100127.44;5540121;32;34288;-86
2023/04/06 13:13:01;;;;;;;10.90;7.10;;;;;;;9.13;33.38;100116.91;5541510;32;34730;-86
2023/04/06 13:16:08;;;;;;;9.68;6.78;;;;;;;8.99;33.27;100114.91;5543702;32;34486;-85
2023/04/06 13:19:14;;;;;;;12.43;7.62;;;;;;;8.97;33.52;100115.00;5529536;32;33657;-85
2023/04/06 13:22:17;;;;;;;8.80;6.68;;;;;;;8.99;34.03;100109.59;5533646;32;33584;-85
2023/04/06 13:25:20;;;;;;;11.43;7.30;;;;;;;9.19;33.67;100121.06;5528421;32;34729;-87
2023/04/06 13:28:22;;;;;;;11.70;6.90;;;;;;;8.57;34.46;100117.69;5532425;32;34734;-86
2023/04/06 13:31:25;;;;;;;11.30;6.93;;;;;;;8.62;35.02;100128.06;5533424;32;34649;-86
2023/04/06 13:34:29;;;;;;;11.00;7.03;;;;;;;8.41;36.09;100117.50;5532667;32;33329;-83
2023/04/06 13:37:33;;;;;;;11.35;7.03;;;;;;;8.66;36.34;100110.25;5534044;32;34101;-85
2023/04/06 13:40:39;;;;;;;9.43;6.72;;;;;;;8.56;36.86;100120.41;5535787;32;34084;-83
2023/04/06 13:43:41;;;;;;;10.25;6.50;;;;;;;8.33;37.44;100115.19;5532057;32;33584;-84
2023/04/06 13:46:44;;;;;;;8.95;5.85;;;;;;;8.33;37.73;100109.03;5535934;32;33971;-84
2023/04/06 13:49:47;;;;;;;9.90;6.62;;;;;;;8.23;38.31;100108.59;5537823;32;34784;-89
2023/04/06 13:52:50;;;;;;;12.60;7.07;;;;;;;8.05;38.40;100102.34;5542408;32;33979;-88
2023/04/06 13:55:54;;;;;;;8.88;6.30;;;;;;;8.35;37.32;100094.00;5536307;32;34188;-88
2023/04/06 13:58:58;;;;;;;11.35;6.55;;;;;;;8.27;36.95;100099.62;5535142;32;35275;-85
2023/04/06 14:02:06;;;;;;;10.43;6.85;;;;;;;8.62;35.92;100099.81;5542183;32;34244;-85
2023/04/06 14:05:10;;;;;;;8.88;6.00;;;;;;;8.56;36.07;100089.53;5523719;32;33650;-84
2023/04/06 14:08:13;;;;;;;10.70;6.28;;;;;;;8.84;35.58;100092.66;5540236;32;34044;-84
2023/04/06 14:11:16;;;;;;;8.90;6.60;;;;;;;8.53;35.89;100087.03;5534909;32;33886;-85
2023/04/06 14:14:19;;;;;;;7.20;6.00;;;;;;;8.31;36.66;100095.06;5539999;32;33796;-85
2023/04/06 14:17:22;;;;;;;8.85;5.95;;;;;;;8.09;37.22;100083.66;5537311;32;33905;-84
2023/04/06 14:20:24;;;;;;;10.57;6.28;;;;;;;8.31;36.74;100087.97;5535002;32;35520;-85
2023/04/06 14:23:28;;;;;;;8.32;5.90;;;;;;;8.58;36.95;100094.75;5539468;32;33811;-84
2023/04/06 14:26:31;;;;;;;8.73;6.40;;;;;;;8.67;36.40;100096.12;5537516;32;34121;-85
2023/04/06 14:29:35;;;;;;;8.65;5.90;;;;;;;8.41;36.22;100095.50;5538575;32;34202;-84
2023/04/06 14:32:39;;;;;;;8.40;5.78;;;;;;;8.46;36.38;100098.78;5538173;32;34043;-84
2023/04/06 14:35:42;;;;;;;10.48;6.00;;;;;;;8.66;36.68;100091.75;5536460;32;34053;-84
2023/04/06 14:38:48;;;;;;;11.45;6.50;;;;;;;8.53;37.17;100087.03;5537399;32;34073;-84
2023/04/06 14:41:51;;;;;;;8.25;6.32;;;;;;;8.06;38.58;100102.25;5538368;32;34093;-85
2023/04/06 14:44:53;;;;;;;8.65;6.47;;;;;;;7.77;40.19;100108.81;5535520;32;33986;-84
2023/04/06 14:47:57;;;;;;;8.32;5.97;;;;;;;7.32;41.90;100108.00;5536386;32;33192;-84
2023/04/06 14:51:01;;;;;;;8.98;6.32;;;;;;;7.57;41.83;100104.34;5535374;32;33669;-84
2023/04/06 14:54:04;;;;;;;9.45;6.30;;;;;;;7.30;42.75;100105.44;5533823;32;34670;-83
2023/04/06 14:57:07;;;;;;;13.00;6.65;;;;;;;7.64;42.46;100117.25;5535247;32;34062;-83
2023/04/06 15:00:11;;;;;;;10.30;6.28;;;;;;;7.63;42.97;100112.91;5535303;32;34112;-83
2023/04/06 15:03:15;;;;;;;7.55;5.90;;;;;;;7.84;43.01;100119.97;5536953;32;34819;-83
2023/04/06 15:06:20;;;;;;;10.85;6.35;;;;;;;7.17;47.59;100123.53;5539383;32;34326;-83
2023/04/06 15:09:23;;;;;;;10.05;6.10;;;;;;;6.46;52.39;100135.87;5544284;32;34051;-83
